Terminal Aerodrome Forecast
Issued by NWS

Home | Current Version | Previous Version | Text Only | Print | Product List | Glossary On
Versions: 1 2 3 4 5 6 7 8 9 10 11 12 13 14 15 16 17 18 19 20 21 22 23
000
FTUS46 KLOX 242106 AAA
TAFPRB
TAF AMD
KPRB 242106Z 2421/2518 23010KT P6SM OVC027
     FM242300 21017G25KT P6SM BKN035
     FM250300 19009KT P6SM OVC040
     FM250600 19004KT P6SM OVC025 PROB30 2506/2510 6SM -RA BR BKN015
      OVC025
     FM251000 21004KT P6SM VCSH SCT015 OVC025
     FM251500 21003KT P6SM VCSH SCT025 OVC035=

USA.gov is the U.S. government's official web portal to all federal, state and local government web resources and services.